createdAt,value
2017-04-04T00:00:55.317Z,16.10
2017-04-04T00:01:53.270Z,16.10
2017-04-04T00:02:51.057Z,16.00
2017-04-04T00:04:47.343Z,16.00
2017-04-04T00:05:45.123Z,16.00
2017-04-04T00:06:43.005Z,15.90
2017-04-04T00:07:40.829Z,15.90
2017-04-04T00:08:38.685Z,16.00
2017-04-04T00:09:36.487Z,16.00
2017-04-04T00:10:34.277Z,16.00
2017-04-04T00:11:32.070Z,16.00
2017-04-04T00:12:29.863Z,16.00
2017-04-04T00:13:27.631Z,16.00
2017-04-04T00:14:25.482Z,16.00
2017-04-04T00:15:23.270Z,16.00
2017-04-04T00:16:21.062Z,16.00
2017-04-04T00:17:18.849Z,16.00
2017-04-04T00:18:16.633Z,16.00
2017-04-04T00:19:14.421Z,16.00
2017-04-04T00:20:12.217Z,15.90
2017-04-04T00:21:10.059Z,15.90
2017-04-04T00:22:07.833Z,15.90
2017-04-04T00:23:06.390Z,15.80
2017-04-04T00:24:04.173Z,15.90
2017-04-04T00:26:00.423Z,15.90
2017-04-04T00:26:58.941Z,15.80
2017-04-04T00:27:56.721Z,15.90
2017-04-04T00:28:54.505Z,15.90
2017-04-04T00:29:53.057Z,15.70
2017-04-04T00:30:50.829Z,15.90
2017-04-04T00:31:49.349Z,15.80
2017-04-04T00:32:47.145Z,15.80
2017-04-04T00:33:45.773Z,15.80
2017-04-04T00:34:43.620Z,15.80
2017-04-04T00:35:41.421Z,15.80
2017-04-04T00:36:39.265Z,15.80
2017-04-04T00:38:35.677Z,15.80
2017-04-04T00:39:33.721Z,15.80
2017-04-04T00:40:31.584Z,15.80
2017-04-04T00:41:29.590Z,15.80
2017-04-04T00:42:27.400Z,15.80
2017-04-04T00:43:25.173Z,15.80
2017-04-04T00:44:23.765Z,15.70
2017-04-04T00:45:21.603Z,15.70
2017-04-04T00:46:20.329Z,15.70
2017-04-04T00:47:18.279Z,15.70
2017-04-04T00:48:16.833Z,15.70
2017-04-04T00:49:15.381Z,15.70
2017-04-04T00:50:13.146Z,15.70
2017-04-04T00:51:10.985Z,15.70
2017-04-04T00:52:08.792Z,15.70
2017-04-04T00:53:07.330Z,15.60
2017-04-04T00:54:05.157Z,15.70
2017-04-04T00:55:02.948Z,15.60
2017-04-04T00:56:59.218Z,15.60
2017-04-04T00:57:57.082Z,15.70
2017-04-04T00:58:54.912Z,15.70
2017-04-04T00:59:53.441Z,15.60
2017-04-04T01:00:51.210Z,15.60
2017-04-04T01:01:48.995Z,15.60
2017-04-04T01:02:46.890Z,15.70
2017-04-04T01:03:44.677Z,15.70
2017-04-04T01:04:42.467Z,15.60
2017-04-04T01:05:40.254Z,15.60
2017-04-04T01:06:38.069Z,15.60
2017-04-04T01:07:35.865Z,15.60
2017-04-04T01:08:33.649Z,15.60
2017-04-04T01:09:31.473Z,15.50
2017-04-04T01:10:29.263Z,15.50
2017-04-04T01:12:26.270Z,15.40
2017-04-04T01:13:24.061Z,15.50
2017-04-04T01:14:21.911Z,15.40
2017-04-04T01:16:18.209Z,15.40
2017-04-04T01:17:16.001Z,15.50
2017-04-04T01:18:13.799Z,15.50
2017-04-04T01:19:11.609Z,15.50
2017-04-04T01:20:09.397Z,15.50
2017-04-04T01:21:07.193Z,15.50
2017-04-04T01:22:05.011Z,15.50
2017-04-04T01:23:02.797Z,15.50
2017-04-04T01:24:00.589Z,15.50
2017-04-04T01:24:58.413Z,15.40
2017-04-04T01:25:56.189Z,15.40
2017-04-04T01:27:52.453Z,15.50
2017-04-04T01:28:50.286Z,15.50
2017-04-04T01:29:48.145Z,15.50
2017-04-04T01:30:46.666Z,15.40
2017-04-04T01:31:44.462Z,15.40
2017-04-04T01:32:42.274Z,15.40
2017-04-04T01:33:40.073Z,15.40
2017-04-04T01:34:37.857Z,15.30
2017-04-04T01:35:35.653Z,15.30
2017-04-04T01:36:33.431Z,15.30
2017-04-04T01:37:31.245Z,15.30
2017-04-04T01:38:29.032Z,15.30
2017-04-04T01:40:25.281Z,15.30
2017-04-04T01:41:23.791Z,15.30
2017-04-04T01:42:21.591Z,15.30
2017-04-04T01:43:20.133Z,15.20
2017-04-04T01:44:17.929Z,15.30
2017-04-04T01:45:16.454Z,15.20
2017-04-04T01:47:12.710Z,15.30
2017-04-04T01:49:08.953Z,15.30
2017-04-04T01:50:07.485Z,15.30
2017-04-04T01:51:05.286Z,15.30
2017-04-04T01:52:03.813Z,15.20
2017-04-04T01:53:01.589Z,15.30
2017-04-04T01:53:59.401Z,15.30
2017-04-04T01:54:57.186Z,15.30
2017-04-04T01:56:54.173Z,15.30
2017-04-04T01:57:51.962Z,15.30
2017-04-04T01:58:49.789Z,15.30
2017-04-04T01:59:47.613Z,15.30
2017-04-04T02:00:45.440Z,15.30
2017-04-04T02:01:43.325Z,15.30
2017-04-04T02:02:41.165Z,15.30
2017-04-04T02:03:38.962Z,15.30
2017-04-04T02:04:36.798Z,15.30
2017-04-04T02:05:34.605Z,15.20
2017-04-04T02:06:32.365Z,15.10
2017-04-04T02:07:30.166Z,15.10
2017-04-04T02:08:28.685Z,15.00
2017-04-04T02:09:26.509Z,15.00
2017-04-04T02:10:25.033Z,15.00
2017-04-04T02:11:22.893Z,15.00
2017-04-04T02:12:21.465Z,14.90
2017-04-04T02:13:19.993Z,14.90
2017-04-04T02:14:17.791Z,14.90
2017-04-04T02:15:15.549Z,14.90
2017-04-04T02:17:11.793Z,14.90
2017-04-04T02:18:09.577Z,14.90
2017-04-04T02:19:07.383Z,14.90
2017-04-04T02:22:02.593Z,15.00
2017-04-04T02:23:00.458Z,15.00
2017-04-04T02:24:57.500Z,15.00
2017-04-04T02:26:53.737Z,15.00
2017-04-04T02:27:51.627Z,15.10
2017-04-04T02:28:49.418Z,15.00
2017-04-04T02:29:47.204Z,15.00
2017-04-04T02:30:45.021Z,15.00
2017-04-04T02:31:42.825Z,15.00
2017-04-04T02:32:40.640Z,15.00
2017-04-04T02:33:38.469Z,15.00
2017-04-04T02:34:36.284Z,15.00
2017-04-04T02:35:34.133Z,15.00
2017-04-04T02:36:31.919Z,15.00
2017-04-04T02:37:29.745Z,15.00
2017-04-04T02:38:27.528Z,15.10
2017-04-04T02:39:25.342Z,15.10
2017-04-04T02:40:23.121Z,15.10
2017-04-04T02:41:21.726Z,15.00
2017-04-04T02:42:19.585Z,15.10
2017-04-04T02:43:17.362Z,15.10
2017-04-04T02:44:15.153Z,15.10
2017-04-04T02:45:13.677Z,15.00
2017-04-04T02:46:11.465Z,15.00
2017-04-04T02:47:09.241Z,15.00
2017-04-04T02:48:07.781Z,14.90
2017-04-04T02:49:05.613Z,15.00
2017-04-04T02:50:03.417Z,15.00
2017-04-04T02:51:01.195Z,15.00
2017-04-04T02:51:58.973Z,15.00
2017-04-04T02:52:57.586Z,14.90
2017-04-04T02:53:55.417Z,15.00
2017-04-04T02:55:51.729Z,15.00
2017-04-04T02:56:49.484Z,14.90
2017-04-04T02:57:47.261Z,14.90
2017-04-04T02:58:45.849Z,14.90
2017-04-04T02:59:43.633Z,14.90
2017-04-04T03:00:41.477Z,14.90
2017-04-04T03:01:40.136Z,14.90
2017-04-04T03:02:37.921Z,14.90
2017-04-04T03:03:35.697Z,14.90
2017-04-04T03:05:32.017Z,14.90
2017-04-04T03:06:29.793Z,14.90
2017-04-04T03:08:26.014Z,14.90
2017-04-04T03:09:23.785Z,14.90
2017-04-04T03:10:22.331Z,14.90
2017-04-04T03:11:20.136Z,14.90
2017-04-04T03:12:17.953Z,14.90
2017-04-04T03:13:15.739Z,14.90
2017-04-04T03:14:13.539Z,14.90
2017-04-04T03:15:11.362Z,14.90
2017-04-04T03:16:09.178Z,14.90
2017-04-04T03:17:07.013Z,14.80
2017-04-04T03:18:04.786Z,14.80
2017-04-04T03:19:02.568Z,14.80
2017-04-04T03:20:58.877Z,14.80
2017-04-04T03:21:57.416Z,14.80
2017-04-04T03:22:55.205Z,14.80
2017-04-04T03:23:52.997Z,14.80
2017-04-04T03:24:50.814Z,14.90
2017-04-04T03:25:48.619Z,14.80
2017-04-04T03:26:46.417Z,14.80
2017-04-04T03:27:44.215Z,14.80
2017-04-04T03:28:42.002Z,14.80
2017-04-04T03:29:39.789Z,14.80
2017-04-04T03:30:38.348Z,14.70
2017-04-04T03:31:36.137Z,14.70
2017-04-04T03:32:33.931Z,14.80
2017-04-04T03:33:31.765Z,14.70
2017-04-04T03:34:29.545Z,14.70
2017-04-04T03:35:27.381Z,14.70
2017-04-04T03:36:25.930Z,14.70
2017-04-04T03:37:23.729Z,14.70
2017-04-04T03:38:21.513Z,14.70
2017-04-04T03:39:19.293Z,14.70
2017-04-04T03:40:17.146Z,14.80
2017-04-04T03:41:14.953Z,14.80
2017-04-04T03:42:12.769Z,14.80
2017-04-04T03:43:10.571Z,14.80
2017-04-04T03:44:08.373Z,14.80
2017-04-04T03:45:06.211Z,14.80
2017-04-04T03:47:02.501Z,14.80
2017-04-04T03:48:58.789Z,14.80
2017-04-04T03:50:55.099Z,14.90
2017-04-04T03:51:53.669Z,14.80
2017-04-04T03:53:49.945Z,14.80
2017-04-04T03:54:47.729Z,14.90
2017-04-04T03:55:45.518Z,14.90
2017-04-04T03:56:43.346Z,14.90
2017-04-04T03:57:41.121Z,14.90
2017-04-04T03:58:38.901Z,14.90
2017-04-04T03:59:36.705Z,14.90
2017-04-04T04:00:34.485Z,14.90
2017-04-04T04:01:32.289Z,14.80
2017-04-04T04:02:30.057Z,14.80
2017-04-04T04:03:27.881Z,14.90
2017-04-04T04:04:25.697Z,14.90
2017-04-04T04:06:21.971Z,14.90
2017-04-04T04:07:19.775Z,14.90
2017-04-04T04:09:16.894Z,14.90
2017-04-04T04:10:14.865Z,15.00
2017-04-04T04:11:12.670Z,14.90
2017-04-04T04:12:10.529Z,14.90
2017-04-04T04:13:08.329Z,14.90
2017-04-04T04:14:06.164Z,14.90
2017-04-04T04:15:04.062Z,14.90
2017-04-04T04:16:01.890Z,14.90
2017-04-04T04:16:59.677Z,14.90
2017-04-04T04:17:57.477Z,14.90
2017-04-04T04:18:55.252Z,14.90
2017-04-04T04:19:53.021Z,14.90
2017-04-04T04:20:50.809Z,14.90
2017-04-04T04:21:48.617Z,14.90
2017-04-04T04:22:46.409Z,14.90
2017-04-04T04:23:44.189Z,14.90
2017-04-04T04:24:41.976Z,14.90
2017-04-04T04:25:39.770Z,14.90
2017-04-04T04:26:37.568Z,15.00
2017-04-04T04:27:35.343Z,15.00
2017-04-04T04:28:33.133Z,15.00
2017-04-04T04:29:30.934Z,15.00
2017-04-04T04:30:28.725Z,15.00
2017-04-04T04:32:24.989Z,14.90
2017-04-04T04:33:23.531Z,14.90
2017-04-04T04:34:21.350Z,15.00
2017-04-04T04:35:19.113Z,15.00
2017-04-04T04:36:16.929Z,15.00
2017-04-04T04:37:14.726Z,15.00
2017-04-04T04:38:12.555Z,15.00
2017-04-04T04:39:10.349Z,15.00
2017-04-04T04:40:08.129Z,15.00
2017-04-04T04:41:05.923Z,15.00
2017-04-04T04:42:03.721Z,15.00
2017-04-04T04:43:01.513Z,15.00
2017-04-04T04:44:00.058Z,15.00
2017-04-04T04:44:57.875Z,14.90
2017-04-04T04:45:55.653Z,15.00
2017-04-04T04:46:54.201Z,14.90
2017-04-04T04:47:51.997Z,14.90
2017-04-04T04:48:49.793Z,14.90
2017-04-04T04:49:47.567Z,14.90
2017-04-04T04:50:45.360Z,14.90
2017-04-04T04:51:43.909Z,14.90
2017-04-04T04:52:42.425Z,14.90
2017-04-04T04:53:40.225Z,15.00
2017-04-04T04:54:38.014Z,15.00
2017-04-04T04:55:35.818Z,15.00
2017-04-04T04:56:33.645Z,15.00
2017-04-04T04:57:31.709Z,15.00
2017-04-04T04:58:30.255Z,14.90
2017-04-04T04:59:28.037Z,15.00
2017-04-04T05:00:26.573Z,15.00
2017-04-04T05:01:24.443Z,15.00
2017-04-04T05:02:22.500Z,15.00
2017-04-04T05:03:20.276Z,15.00
2017-04-04T05:04:18.802Z,15.00
2017-04-04T05:05:16.666Z,15.00
2017-04-04T05:06:15.215Z,15.00
2017-04-04T05:07:13.011Z,15.00
2017-04-04T05:08:10.814Z,15.10
2017-04-04T05:09:08.649Z,15.00
2017-04-04T05:10:06.473Z,15.00
2017-04-04T05:12:02.801Z,15.10
2017-04-04T05:14:00.253Z,15.00
2017-04-04T05:14:58.022Z,15.00
2017-04-04T05:15:56.581Z,15.00
2017-04-04T05:16:54.417Z,15.00
2017-04-04T05:17:52.228Z,15.00
2017-04-04T05:18:50.039Z,15.00
2017-04-04T05:19:47.909Z,15.00
2017-04-04T05:20:45.782Z,15.00
2017-04-04T05:21:44.400Z,15.00
2017-04-04T05:22:42.205Z,15.00
2017-04-04T05:23:40.027Z,15.00
2017-04-04T05:24:37.838Z,15.00
2017-04-04T05:25:35.662Z,15.00
2017-04-04T05:26:33.502Z,15.00
2017-04-04T05:27:31.344Z,15.00
2017-04-04T05:29:27.629Z,15.10
2017-04-04T05:30:25.452Z,15.10
2017-04-04T05:31:23.282Z,15.10
2017-04-04T05:32:21.129Z,15.10
2017-04-04T05:33:19.001Z,15.10
2017-04-04T05:34:16.800Z,15.10
2017-04-04T05:35:14.617Z,15.10
2017-04-04T05:36:12.393Z,15.10
2017-04-04T05:37:10.945Z,15.00
2017-04-04T05:38:08.782Z,15.10
2017-04-04T05:39:06.596Z,15.20
2017-04-04T05:40:04.640Z,15.20
2017-04-04T05:41:03.221Z,15.10
2017-04-04T05:42:01.776Z,15.10
2017-04-04T05:42:59.571Z,15.20
2017-04-04T05:43:57.344Z,15.20
2017-04-04T05:44:55.157Z,15.20
2017-04-04T05:45:52.961Z,15.20
2017-04-04T05:46:50.787Z,15.20
2017-04-04T05:47:48.658Z,15.20
2017-04-04T05:48:46.609Z,15.20
2017-04-04T05:49:44.409Z,15.20
2017-04-04T05:51:40.788Z,15.20
2017-04-04T05:52:38.625Z,15.20
2017-04-04T05:53:37.177Z,15.20
2017-04-04T05:54:34.967Z,15.20
2017-04-04T05:55:32.755Z,15.20
2017-04-04T05:56:30.609Z,15.20
2017-04-04T05:57:28.403Z,15.20
2017-04-04T05:58:26.945Z,15.20
2017-04-04T05:59:24.721Z,15.30
2017-04-04T06:00:22.567Z,15.20
2017-04-04T06:02:18.907Z,15.20
2017-04-04T06:03:16.703Z,15.30
2017-04-04T06:04:14.513Z,15.30
2017-04-04T06:05:12.311Z,15.20
2017-04-04T06:06:10.092Z,15.30
2017-04-04T06:07:07.914Z,15.30
2017-04-04T06:08:05.714Z,15.30
2017-04-04T06:09:03.619Z,15.30
2017-04-04T06:10:01.426Z,15.30
2017-04-04T06:10:59.202Z,15.40
2017-04-04T06:11:56.997Z,15.30
2017-04-04T06:12:54.793Z,15.30
2017-04-04T06:13:52.592Z,15.30
2017-04-04T06:14:50.394Z,15.20
2017-04-04T06:15:48.173Z,15.30
2017-04-04T06:16:46.070Z,15.30
2017-04-04T06:17:44.049Z,15.30
2017-04-04T06:18:42.269Z,15.30
2017-04-04T06:19:40.817Z,15.30
2017-04-04T06:20:38.621Z,15.30
2017-04-04T06:21:36.543Z,15.40
2017-04-04T06:22:35.993Z,15.40
2017-04-04T06:23:33.878Z,15.50
2017-04-04T06:24:33.446Z,15.50
2017-04-04T06:26:31.117Z,15.40
2017-04-04T06:28:28.019Z,15.50
2017-04-04T06:29:26.040Z,15.50
2017-04-04T06:30:24.261Z,15.50
2017-04-04T06:31:22.353Z,15.50
2017-04-04T06:32:21.053Z,15.50
2017-04-04T06:33:19.387Z,15.50
2017-04-04T06:34:17.257Z,15.50
2017-04-04T06:35:15.177Z,15.50
2017-04-04T06:36:12.966Z,15.50
2017-04-04T06:37:10.851Z,15.60
2017-04-04T06:38:08.701Z,15.60
2017-04-04T06:39:07.257Z,15.60
2017-04-04T06:40:05.779Z,15.60
2017-04-04T06:41:03.680Z,15.60
2017-04-04T06:42:01.493Z,15.60
2017-04-04T06:42:59.327Z,15.70
2017-04-04T06:43:57.841Z,15.60
2017-04-04T06:44:55.626Z,15.60
2017-04-04T06:45:54.146Z,15.70
2017-04-04T06:46:52.543Z,15.70
2017-04-04T06:49:48.905Z,15.70
2017-04-04T06:50:47.694Z,15.70
2017-04-04T06:51:45.713Z,15.70
2017-04-04T06:52:44.253Z,15.70
2017-04-04T06:53:42.583Z,15.80
2017-04-04T06:54:41.429Z,15.80
2017-04-04T06:55:40.070Z,15.80
2017-04-04T06:56:39.281Z,15.80
2017-04-04T06:57:37.593Z,15.80
2017-04-04T06:58:35.642Z,15.80
2017-04-04T06:59:35.115Z,15.80
2017-04-04T07:01:31.483Z,15.80
2017-04-04T07:02:37.456Z,15.80
2017-04-04T07:03:36.982Z,15.80
2017-04-04T07:04:36.487Z,15.80
2017-04-04T07:05:34.965Z,15.80
2017-04-04T07:06:32.893Z,15.80
2017-04-04T07:07:30.904Z,15.80
2017-04-04T07:08:29.669Z,15.80
2017-04-04T07:09:28.094Z,15.80
2017-04-04T07:10:25.875Z,15.90
2017-04-04T07:11:24.145Z,15.90
2017-04-04T07:12:22.142Z,15.90
2017-04-04T07:13:21.466Z,15.90
2017-04-04T07:14:19.929Z,15.90
2017-04-04T07:15:19.067Z,15.90
2017-04-04T07:16:17.542Z,15.90
2017-04-04T07:17:16.105Z,15.90
2017-04-04T07:18:14.644Z,15.90
2017-04-04T07:19:12.529Z,15.90
2017-04-04T07:20:10.345Z,15.90
2017-04-04T07:21:08.166Z,15.90
2017-04-04T07:22:05.969Z,15.90
2017-04-04T07:23:04.988Z,15.90
2017-04-04T07:25:01.495Z,16.00
2017-04-04T07:25:59.861Z,16.00
2017-04-04T07:26:58.485Z,16.10
2017-04-04T07:27:57.037Z,16.00
2017-04-04T07:28:55.777Z,16.00
2017-04-04T07:29:54.291Z,16.00
2017-04-04T07:30:53.286Z,16.00
2017-04-04T07:31:51.469Z,16.00
2017-04-04T07:32:49.621Z,16.00
2017-04-04T07:33:48.277Z,16.10
2017-04-04T07:34:47.923Z,16.10
2017-04-04T07:35:46.136Z,16.10
2017-04-04T07:36:44.934Z,16.00
2017-04-04T07:37:43.124Z,16.10
2017-04-04T07:38:40.928Z,16.10
2017-04-04T07:39:39.625Z,16.10
2017-04-04T07:40:37.763Z,16.10
2017-04-04T07:42:34.362Z,16.20
2017-04-04T07:43:32.195Z,16.20
2017-04-04T07:44:30.741Z,16.10
2017-04-04T07:46:27.618Z,16.20
2017-04-04T07:47:25.987Z,16.20
2017-04-04T07:48:23.964Z,16.20
2017-04-04T07:49:22.221Z,16.20
2017-04-04T07:50:20.297Z,16.20
2017-04-04T07:51:19.511Z,16.20
2017-04-04T07:52:18.038Z,16.20
2017-04-04T07:53:16.247Z,16.20
2017-04-04T07:54:14.477Z,16.30
2017-04-04T07:55:13.045Z,16.30
2017-04-04T07:56:11.512Z,16.30
2017-04-04T07:57:09.684Z,16.40
2017-04-04T07:58:07.677Z,16.30
2017-04-04T07:59:05.587Z,16.30
2017-04-04T08:00:03.686Z,16.30
2017-04-04T08:01:01.742Z,16.40
2017-04-04T08:01:59.974Z,16.40
2017-04-04T08:02:58.119Z,16.40
2017-04-04T08:03:57.887Z,16.40
2017-04-04T08:04:56.445Z,16.50
2017-04-04T08:05:54.525Z,16.50
2017-04-04T08:06:52.899Z,16.50
2017-04-04T08:07:51.446Z,16.50
2017-04-04T08:08:49.627Z,16.50
2017-04-04T08:09:47.685Z,16.50
2017-04-04T08:10:45.633Z,16.50
2017-04-04T08:11:43.756Z,16.50
2017-04-04T08:12:41.722Z,16.60
2017-04-04T08:13:40.139Z,16.60
2017-04-04T08:15:36.598Z,16.60
2017-04-04T08:16:35.042Z,16.60
2017-04-04T08:17:32.977Z,16.60
2017-04-04T08:18:31.254Z,16.70
2017-04-04T08:19:29.032Z,16.70
2017-04-04T08:20:26.818Z,16.60
2017-04-04T08:21:26.218Z,16.60
2017-04-04T08:22:24.132Z,16.60
2017-04-04T08:23:22.273Z,16.60
2017-04-04T08:24:20.094Z,16.70
2017-04-04T08:25:18.008Z,16.70
2017-04-04T08:26:15.901Z,16.70
2017-04-04T08:27:13.735Z,16.80
2017-04-04T08:28:11.639Z,16.70
2017-04-04T08:29:10.362Z,16.80
2017-04-04T08:30:08.147Z,16.80
2017-04-04T08:31:05.925Z,16.80
2017-04-04T08:32:04.615Z,16.80
2017-04-04T08:33:02.931Z,16.80
2017-04-04T08:34:00.936Z,16.80
2017-04-04T08:34:58.721Z,16.80
2017-04-04T08:36:55.827Z,16.90
2017-04-04T08:37:53.781Z,16.90
2017-04-04T08:38:51.597Z,16.90
2017-04-04T08:39:49.409Z,17.00
2017-04-04T08:40:47.264Z,17.00
2017-04-04T08:41:45.169Z,17.00
2017-04-04T08:42:44.717Z,17.00
2017-04-04T08:44:42.111Z,17.00
2017-04-04T08:45:41.450Z,17.10
2017-04-04T08:46:39.760Z,17.10
2017-04-04T08:47:37.610Z,17.10
2017-04-04T08:49:33.997Z,17.10
2017-04-04T08:50:32.531Z,17.10
2017-04-04T08:51:30.912Z,17.20
2017-04-04T08:52:30.942Z,17.20
2017-04-04T08:53:30.732Z,17.20
2017-04-04T08:54:28.923Z,17.20
2017-04-04T08:56:26.448Z,17.20
2017-04-04T08:57:24.995Z,17.20
2017-04-04T08:58:23.159Z,17.20
2017-04-04T08:59:21.689Z,17.30
2017-04-04T09:00:19.579Z,17.30
2017-04-04T09:01:17.467Z,17.30
2017-04-04T09:02:15.369Z,17.40
2017-04-04T09:03:13.430Z,17.40
2017-04-04T09:04:11.504Z,17.40
2017-04-04T09:06:08.932Z,17.40
2017-04-04T09:07:07.101Z,17.40
2017-04-04T09:08:05.717Z,17.40
2017-04-04T09:09:04.791Z,17.40
2017-04-04T09:10:03.565Z,17.40
2017-04-04T09:11:02.167Z,17.40
2017-04-04T09:12:00.006Z,17.50
2017-04-04T09:12:57.871Z,17.50
2017-04-04T09:13:56.405Z,17.50
2017-04-04T09:14:54.218Z,17.50
2017-04-04T09:15:52.022Z,17.60
2017-04-04T09:17:48.279Z,17.60
2017-04-04T09:18:46.897Z,17.60
2017-04-04T09:19:44.709Z,17.60
2017-04-04T09:20:42.508Z,17.70
2017-04-04T09:21:40.299Z,17.60
2017-04-04T09:22:38.125Z,17.60
2017-04-04T09:23:36.693Z,17.50
2017-04-04T09:24:34.486Z,17.50
2017-04-04T09:25:31.549Z,17.50
2017-04-04T09:26:29.352Z,17.50
2017-04-04T09:27:27.437Z,17.50
2017-04-04T09:28:25.244Z,17.50
2017-04-04T09:29:23.037Z,17.50
2017-04-04T09:30:20.865Z,17.40
2017-04-04T09:31:18.649Z,17.50
2017-04-04T09:33:15.729Z,17.50
2017-04-04T09:34:14.291Z,17.50
2017-04-04T09:35:12.825Z,17.50
2017-04-04T09:36:10.644Z,17.60
2017-04-04T09:37:08.461Z,17.50
2017-04-04T09:38:06.242Z,17.50
2017-04-04T09:39:04.482Z,17.50
2017-04-04T09:40:02.350Z,17.50
2017-04-04T09:41:00.887Z,17.40
2017-04-04T09:41:58.877Z,17.50
2017-04-04T09:42:56.675Z,17.50
2017-04-04T09:43:54.530Z,17.50
2017-04-04T09:44:52.344Z,17.50
2017-04-04T09:45:50.218Z,17.50
2017-04-04T09:46:48.852Z,17.50
2017-04-04T09:48:45.917Z,17.50
2017-04-04T09:50:42.217Z,17.60
2017-04-04T09:51:40.021Z,17.60
2017-04-04T09:52:37.845Z,17.60
2017-04-04T09:53:35.687Z,17.50
2017-04-04T09:54:33.512Z,17.50
2017-04-04T09:55:31.313Z,17.50
2017-04-04T09:56:29.118Z,17.50
2017-04-04T09:57:26.961Z,17.50
2017-04-04T09:58:24.818Z,17.60
2017-04-04T09:59:22.589Z,17.60
2017-04-04T10:00:20.561Z,17.60
2017-04-04T10:01:18.381Z,17.60
2017-04-04T10:02:16.929Z,17.60
2017-04-04T10:03:14.730Z,17.60
2017-04-04T10:04:12.560Z,17.70
2017-04-04T10:05:10.361Z,17.60
2017-04-04T10:06:08.157Z,17.60
2017-04-04T10:07:06.677Z,17.60
2017-04-04T10:08:04.481Z,17.70
2017-04-04T10:09:04.066Z,17.70
2017-04-04T10:10:02.638Z,17.70
2017-04-04T10:11:00.438Z,17.80
2017-04-04T10:11:58.309Z,17.80
2017-04-04T10:12:56.085Z,17.80
2017-04-04T10:13:53.889Z,17.90
2017-04-04T10:14:52.437Z,17.80
2017-04-04T10:15:50.231Z,17.90
2017-04-04T10:16:48.055Z,17.80
2017-04-04T10:17:46.613Z,17.80
2017-04-04T10:18:44.397Z,17.90
2017-04-04T10:19:42.226Z,17.90
2017-04-04T10:20:40.039Z,17.80
2017-04-04T10:21:37.881Z,17.90
2017-04-04T10:22:35.721Z,17.90
2017-04-04T10:23:34.232Z,17.90
2017-04-04T10:24:32.006Z,17.90
2017-04-04T10:25:29.802Z,17.90
2017-04-04T10:26:27.621Z,17.90
2017-04-04T10:27:26.194Z,17.90
2017-04-04T10:28:23.978Z,18.00
2017-04-04T10:29:22.541Z,17.90
2017-04-04T10:30:21.306Z,17.90
2017-04-04T10:31:19.105Z,17.90
2017-04-04T10:32:16.877Z,18.00
2017-04-04T10:33:14.662Z,18.10
2017-04-04T10:35:11.101Z,18.10
2017-04-04T10:36:09.033Z,18.10
2017-04-04T10:37:07.094Z,18.20
2017-04-04T10:39:04.250Z,18.20
2017-04-04T10:41:01.157Z,18.20
2017-04-04T10:42:58.069Z,18.10
2017-04-04T10:43:56.073Z,18.20
2017-04-04T10:45:52.820Z,18.20
2017-04-04T10:46:50.969Z,18.20
2017-04-04T10:47:49.036Z,18.20
2017-04-04T10:48:47.908Z,18.10
2017-04-04T10:49:45.937Z,18.20
2017-04-04T10:50:43.986Z,18.20
2017-04-04T10:51:42.062Z,18.20
2017-04-04T10:52:40.166Z,18.10
2017-04-04T10:53:38.317Z,18.20
2017-04-04T10:54:36.337Z,18.20
2017-04-04T10:55:34.453Z,18.20
2017-04-04T10:57:31.497Z,18.20
2017-04-04T10:59:27.793Z,18.30
2017-04-04T11:00:25.753Z,18.20
2017-04-04T11:01:23.633Z,18.20
2017-04-04T11:03:20.034Z,18.10
2017-04-04T11:04:17.894Z,18.10
2017-04-04T11:05:15.702Z,18.10
2017-04-04T11:06:13.543Z,18.10
2017-04-04T11:07:11.358Z,18.10
2017-04-04T11:08:09.138Z,18.20
2017-04-04T11:09:06.941Z,18.10
2017-04-04T11:10:05.281Z,18.10
2017-04-04T11:11:03.066Z,18.10
2017-04-04T11:12:00.930Z,18.10
2017-04-04T11:12:58.706Z,18.10
2017-04-04T11:13:56.477Z,18.10
2017-04-04T11:14:54.325Z,18.10
2017-04-04T11:15:52.125Z,18.10
2017-04-04T11:16:50.665Z,18.20
2017-04-04T11:17:48.495Z,18.20
2017-04-04T11:18:46.278Z,18.10
2017-04-04T11:19:44.070Z,18.20
2017-04-04T11:20:42.634Z,18.10
2017-04-04T11:21:40.435Z,18.20
2017-04-04T11:22:38.290Z,18.20
2017-04-04T11:23:36.072Z,18.30
2017-04-04T11:24:33.899Z,18.30
2017-04-04T11:25:31.765Z,18.20
2017-04-04T11:26:29.590Z,18.30
2017-04-04T11:27:28.129Z,18.20
2017-04-04T11:29:25.193Z,18.30
2017-04-04T11:30:23.808Z,18.30
2017-04-04T11:31:21.610Z,18.30
2017-04-04T11:32:19.411Z,18.30
2017-04-04T11:33:17.293Z,18.30
2017-04-04T11:34:15.086Z,18.30
2017-04-04T11:35:12.873Z,18.30
2017-04-04T11:36:10.670Z,18.30
2017-04-04T11:37:09.213Z,18.30
2017-04-04T11:38:07.038Z,18.30
2017-04-04T11:39:04.931Z,18.30
2017-04-04T11:40:02.799Z,18.40
2017-04-04T11:41:00.613Z,18.40
2017-04-04T11:41:58.438Z,18.40
2017-04-04T11:42:56.336Z,18.50
2017-04-04T11:43:54.165Z,18.50
2017-04-04T11:46:48.888Z,18.50
2017-04-04T11:47:46.701Z,18.50
2017-04-04T11:49:43.011Z,18.50
2017-04-04T11:50:40.793Z,18.50
2017-04-04T11:51:38.619Z,18.50
2017-04-04T11:52:36.417Z,18.50
2017-04-04T11:53:34.946Z,18.50
2017-04-04T11:54:32.759Z,18.50
2017-04-04T11:55:30.543Z,18.50
2017-04-04T11:56:28.329Z,18.50
2017-04-04T11:57:26.167Z,18.50
2017-04-04T11:58:23.941Z,18.50
2017-04-04T11:59:21.731Z,18.50
2017-04-04T12:00:19.588Z,18.50
2017-04-04T12:01:17.422Z,18.40
2017-04-04T12:03:13.729Z,18.40
2017-04-04T12:04:11.517Z,18.40
2017-04-04T12:05:09.303Z,18.40
2017-04-04T12:06:07.161Z,18.40
2017-04-04T12:07:04.973Z,18.40
2017-04-04T12:08:03.568Z,18.30
2017-04-04T12:09:01.361Z,18.40
2017-04-04T12:09:59.173Z,18.40
2017-04-04T12:10:57.141Z,18.40
2017-04-04T12:11:54.954Z,18.40
2017-04-04T12:12:52.765Z,18.40
2017-04-04T12:13:50.542Z,18.40
2017-04-04T12:14:48.337Z,18.40
2017-04-04T12:15:46.130Z,18.50
2017-04-04T12:16:43.921Z,18.50
2017-04-04T12:17:41.719Z,18.50
2017-04-04T12:18:39.613Z,18.50
2017-04-04T12:19:37.432Z,18.50
2017-04-04T12:20:35.218Z,18.60
2017-04-04T12:21:33.086Z,18.80
2017-04-04T12:22:30.885Z,18.80
2017-04-04T12:23:29.075Z,18.80
2017-04-04T12:24:27.673Z,18.90
2017-04-04T12:25:25.554Z,19.00
2017-04-04T12:26:24.083Z,18.90
2017-04-04T12:27:21.913Z,18.90
2017-04-04T12:28:19.734Z,18.90
2017-04-04T12:29:17.712Z,18.80
2017-04-04T12:30:15.751Z,18.80
2017-04-04T12:31:13.561Z,18.90
2017-04-04T12:32:11.365Z,18.90
2017-04-04T12:33:09.405Z,18.80
2017-04-04T12:34:07.234Z,18.80
2017-04-04T12:35:05.100Z,18.80
2017-04-04T12:36:02.935Z,18.90
2017-04-04T12:37:00.721Z,18.80
2017-04-04T12:37:58.603Z,18.90
2017-04-04T12:39:54.857Z,18.90
2017-04-04T12:40:53.401Z,18.90
2017-04-04T12:41:51.214Z,18.90
2017-04-04T12:42:49.037Z,19.00
2017-04-04T12:43:46.862Z,19.00
2017-04-04T12:45:43.160Z,18.90
2017-04-04T12:46:41.739Z,18.80
2017-04-04T12:47:39.559Z,18.90
2017-04-04T12:48:37.453Z,18.80
2017-04-04T12:49:35.268Z,18.80
2017-04-04T12:50:33.074Z,18.80
2017-04-04T12:51:30.870Z,18.80
2017-04-04T12:52:29.397Z,18.70
2017-04-04T12:53:27.230Z,18.80
2017-04-04T12:54:25.034Z,18.80
2017-04-04T12:55:23.559Z,18.70
2017-04-04T12:56:21.370Z,18.80
2017-04-04T12:57:19.902Z,18.80
2017-04-04T12:58:17.786Z,18.80
2017-04-04T12:59:15.614Z,18.80
2017-04-04T13:00:13.442Z,18.70
2017-04-04T13:01:11.653Z,18.70
2017-04-04T13:03:08.027Z,18.80
2017-04-04T13:04:05.837Z,18.70
2017-04-04T13:05:03.629Z,18.70
2017-04-04T13:06:01.451Z,18.80
2017-04-04T13:06:59.367Z,18.80
2017-04-04T13:07:57.197Z,18.80
2017-04-04T13:08:55.067Z,18.80
2017-04-04T13:09:52.884Z,18.80
2017-04-04T13:10:50.723Z,18.90
2017-04-04T13:11:48.517Z,18.90
2017-04-04T13:12:47.049Z,18.90
2017-04-04T13:13:44.878Z,19.00
2017-04-04T13:14:42.738Z,19.00
2017-04-04T13:15:40.563Z,18.90
2017-04-04T13:16:38.410Z,18.90
2017-04-04T13:17:36.198Z,18.90
2017-04-04T13:18:34.013Z,18.90
2017-04-04T13:19:32.562Z,18.90
2017-04-04T13:20:30.425Z,18.90
2017-04-04T13:22:27.446Z,18.90
2017-04-04T13:23:25.273Z,18.90
2017-04-04T13:24:23.069Z,18.90
2017-04-04T13:26:18.658Z,18.90
2017-04-04T13:27:16.482Z,18.90
2017-04-04T13:28:14.289Z,19.00
2017-04-04T13:29:12.091Z,19.00
2017-04-04T13:30:09.901Z,19.00
2017-04-04T13:32:06.176Z,19.00
2017-04-04T13:33:03.969Z,19.00
2017-04-04T13:35:00.313Z,19.00
2017-04-04T13:35:58.129Z,19.00